createdAt,value
2023-04-28T00:00:09.545Z,77.57
2023-04-28T00:01:09.531Z,77.26
2023-04-28T00:02:09.529Z,77.26
2023-04-28T00:03:09.716Z,77.26
2023-04-28T00:04:09.781Z,76.96
2023-04-28T00:05:09.559Z,77.06
2023-04-28T00:06:09.494Z,76.96
2023-04-28T00:07:09.466Z,76.96
2023-04-28T00:08:09.457Z,77.06
2023-04-28T00:09:09.462Z,77.06
2023-04-28T00:10:09.449Z,76.96
2023-04-28T00:11:09.439Z,76.86
2023-04-28T00:12:09.414Z,76.45
2023-04-28T00:13:09.424Z,76.56
2023-04-28T00:14:09.388Z,76.35
2023-04-28T00:15:09.392Z,76.25
2023-04-28T00:16:09.413Z,76.04
2023-04-28T00:17:09.411Z,76.04
2023-04-28T00:18:09.409Z,75.95
2023-04-28T00:19:09.402Z,75.95
2023-04-28T00:20:10.055Z,76.04
2023-04-28T00:21:09.359Z,75.95
2023-04-28T00:22:09.308Z,76.04
2023-04-28T00:23:09.391Z,75.84
2023-04-28T00:24:09.285Z,75.84
2023-04-28T00:25:09.452Z,75.84
2023-04-28T00:26:09.280Z,75.91
2023-04-28T00:27:09.258Z,75.60
2023-04-28T00:28:11.657Z,75.60
2023-04-28T00:29:09.252Z,75.81
2023-04-28T00:30:09.231Z,75.70
2023-04-28T00:31:09.240Z,75.50
2023-04-28T00:32:09.344Z,75.70
2023-04-28T00:33:09.219Z,75.81
2023-04-28T00:34:09.183Z,75.91
2023-04-28T00:35:09.170Z,75.81
2023-04-28T00:36:09.158Z,75.91
2023-04-28T00:37:09.158Z,75.91
2023-04-28T00:38:09.145Z,76.01
2023-04-28T00:39:09.145Z,76.21
2023-04-28T00:40:09.141Z,76.21
2023-04-28T00:41:09.112Z,76.31
2023-04-28T00:42:09.100Z,76.31
2023-04-28T00:43:09.084Z,76.42
2023-04-28T00:44:09.090Z,76.31
2023-04-28T00:45:09.062Z,76.31
2023-04-28T00:46:09.134Z,76.21
2023-04-28T00:47:09.048Z,76.11
2023-04-28T00:48:09.130Z,76.11
2023-04-28T00:49:09.035Z,76.01
2023-04-28T00:50:09.017Z,75.91
2023-04-28T00:51:09.026Z,75.81
2023-04-28T00:52:08.982Z,76.01
2023-04-28T00:53:08.992Z,76.11
2023-04-28T00:54:08.977Z,76.31
2023-04-28T00:55:08.969Z,76.21
2023-04-28T00:56:08.954Z,76.42
2023-04-28T00:57:08.969Z,76.52
2023-04-28T00:58:08.942Z,76.62
2023-04-28T00:59:08.935Z,76.82
2023-04-28T01:00:08.933Z,76.62
2023-04-28T01:01:08.966Z,76.72
2023-04-28T01:02:08.914Z,76.62
2023-04-28T01:03:09.007Z,76.72
2023-04-28T01:04:09.045Z,76.72
2023-04-28T01:05:08.856Z,76.92
2023-04-28T01:06:08.848Z,76.92
2023-04-28T01:07:09.138Z,77.03
2023-04-28T01:08:08.826Z,77.23
2023-04-28T01:09:08.823Z,77.33
2023-04-28T01:10:08.802Z,77.57
2023-04-28T01:11:08.803Z,77.53
2023-04-28T01:12:08.781Z,77.67
2023-04-28T01:13:08.782Z,77.78
2023-04-28T01:14:09.143Z,77.87
2023-04-28T01:15:08.779Z,78.08
2023-04-28T01:16:09.092Z,78.08
2023-04-28T01:17:08.757Z,77.87
2023-04-28T01:18:08.801Z,77.98
2023-04-28T01:19:08.712Z,78.08
2023-04-28T01:20:08.693Z,78.19
2023-04-28T01:21:08.694Z,77.87
2023-04-28T01:22:08.679Z,77.67
2023-04-28T01:23:08.687Z,77.67
2023-04-28T01:24:08.642Z,77.87
2023-04-28T01:25:08.672Z,77.98
2023-04-28T01:26:08.648Z,77.98
2023-04-28T01:27:08.636Z,77.67
2023-04-28T01:28:08.616Z,77.57
2023-04-28T01:29:08.621Z,77.47
2023-04-28T01:30:08.598Z,77.47
2023-04-28T01:31:08.663Z,77.67
2023-04-28T01:32:08.568Z,77.87
2023-04-28T01:33:08.618Z,78.08
2023-04-28T01:34:08.659Z,78.08
2023-04-28T01:35:08.572Z,78.28
2023-04-28T01:36:08.523Z,78.19
2023-04-28T01:37:08.545Z,78.28
2023-04-28T01:38:08.533Z,78.19
2023-04-28T01:39:08.544Z,78.08
2023-04-28T01:40:08.481Z,78.08
2023-04-28T01:41:08.483Z,78.28
2023-04-28T01:42:08.470Z,78.39
2023-04-28T01:43:08.465Z,78.28
2023-04-28T01:44:08.476Z,78.28
2023-04-28T01:45:08.489Z,78.39
2023-04-28T01:46:08.460Z,78.59
2023-04-28T01:47:08.409Z,78.69
2023-04-28T01:48:08.548Z,79.00
2023-04-28T01:49:08.534Z,78.89
2023-04-28T01:50:08.417Z,79.20
2023-04-28T01:51:08.408Z,79.20
2023-04-28T01:52:08.365Z,79.50
2023-04-28T01:53:08.362Z,79.61
2023-04-28T01:54:08.346Z,79.71
2023-04-28T01:55:08.377Z,79.81
2023-04-28T01:56:08.333Z,79.71
2023-04-28T01:57:08.300Z,80.02
2023-04-28T01:58:08.316Z,79.91
2023-04-28T01:59:08.278Z,79.81
2023-04-28T02:00:08.552Z,80.02
2023-04-28T02:01:08.277Z,79.91
2023-04-28T02:02:08.258Z,79.71
2023-04-28T02:03:08.361Z,79.81
2023-04-28T02:04:08.285Z,79.50
2023-04-28T02:05:08.216Z,79.30
2023-04-28T02:06:08.225Z,79.00
2023-04-28T02:07:08.205Z,78.89
2023-04-28T02:08:08.191Z,79.10
2023-04-28T02:09:08.189Z,79.30
2023-04-28T02:10:08.156Z,79.30
2023-04-28T02:11:08.161Z,79.10
2023-04-28T02:12:08.164Z,79.30
2023-04-28T02:13:08.131Z,79.30
2023-04-28T02:14:08.146Z,79.41
2023-04-28T02:15:08.134Z,79.41
2023-04-28T02:16:08.127Z,79.10
2023-04-28T02:17:08.105Z,79.30
2023-04-28T02:18:08.148Z,79.10
2023-04-28T02:19:08.097Z,79.10
2023-04-28T02:20:08.048Z,79.41
2023-04-28T02:21:08.059Z,79.50
2023-04-28T02:22:08.044Z,79.71
2023-04-28T02:23:08.083Z,79.50
2023-04-28T02:24:08.034Z,79.30
2023-04-28T02:25:08.009Z,79.20
2023-04-28T02:26:08.002Z,79.00
2023-04-28T02:27:07.996Z,78.80
2023-04-28T02:28:07.978Z,78.89
2023-04-28T02:29:08.007Z,78.89
2023-04-28T02:30:07.964Z,78.89
2023-04-28T02:31:08.086Z,78.89
2023-04-28T02:32:07.921Z,78.89
2023-04-28T02:33:07.941Z,78.80
2023-04-28T02:34:07.924Z,78.59
2023-04-28T02:35:07.912Z,78.89
2023-04-28T02:36:07.900Z,78.89
2023-04-28T02:37:07.886Z,79.10
2023-04-28T02:38:07.870Z,79.20
2023-04-28T02:39:07.860Z,79.10
2023-04-28T02:40:08.123Z,79.30
2023-04-28T02:41:07.848Z,79.50
2023-04-28T02:42:07.823Z,79.50
2023-04-28T02:43:07.837Z,79.41
2023-04-28T02:44:07.812Z,79.50
2023-04-28T02:45:07.798Z,79.41
2023-04-28T02:46:07.890Z,79.61
2023-04-28T02:47:07.878Z,79.61
2023-04-28T02:48:07.777Z,79.71
2023-04-28T02:49:07.743Z,79.71
2023-04-28T02:50:08.009Z,79.81
2023-04-28T02:51:07.724Z,79.81
2023-04-28T02:52:07.710Z,79.91
2023-04-28T02:53:07.968Z,79.91
2023-04-28T02:54:07.682Z,79.81
2023-04-28T02:55:07.694Z,79.81
2023-04-28T02:56:07.686Z,79.81
2023-04-28T02:57:07.659Z,80.11
2023-04-28T02:58:07.661Z,80.22
2023-04-28T02:59:07.652Z,80.63
2023-04-28T03:00:08.892Z,81.34
2023-04-28T03:01:07.740Z,81.44
2023-04-28T03:02:08.374Z,82.05
2023-04-28T03:03:07.795Z,82.32
2023-04-28T03:04:07.875Z,82.42
2023-04-28T03:05:07.596Z,82.62
2023-04-28T03:06:07.603Z,83.34
2023-04-28T03:07:07.574Z,83.84
2023-04-28T03:08:07.577Z,83.34
2023-04-28T03:09:07.532Z,83.58
2023-04-28T03:10:07.676Z,83.68
2023-04-28T03:11:07.525Z,83.37
2023-04-28T03:12:07.488Z,83.17
2023-04-28T03:13:07.498Z,83.07
2023-04-28T03:14:07.488Z,83.68
2023-04-28T03:15:07.476Z,84.19
2023-04-28T03:16:07.500Z,84.50
2023-04-28T03:17:07.460Z,84.19
2023-04-28T03:18:07.517Z,84.19
2023-04-28T03:19:07.444Z,84.70
2023-04-28T03:20:07.433Z,84.90
2023-04-28T03:21:07.430Z,85.31
2023-04-28T03:22:07.442Z,85.41
2023-04-28T03:23:07.423Z,85.21
2023-04-28T03:24:07.387Z,84.90
2023-04-28T03:25:07.367Z,85.21
2023-04-28T03:26:07.362Z,85.11
2023-04-28T03:27:07.358Z,85.41
2023-04-28T03:28:07.337Z,85.00
2023-04-28T03:29:07.342Z,85.00
2023-04-28T03:30:07.688Z,85.00
2023-04-28T03:31:07.310Z,85.61
2023-04-28T03:32:07.325Z,85.82
2023-04-28T03:33:07.361Z,85.51
2023-04-28T03:34:07.272Z,85.21
2023-04-28T03:35:07.252Z,85.11
2023-04-28T03:36:07.253Z,85.41
2023-04-28T03:37:07.267Z,85.31
2023-04-28T03:38:07.215Z,85.61
2023-04-28T03:39:07.222Z,85.92
2023-04-28T03:40:07.204Z,86.22
2023-04-28T03:41:07.210Z,86.53
2023-04-28T03:42:07.188Z,86.43
2023-04-28T03:43:07.202Z,86.22
2023-04-28T03:44:07.164Z,86.02
2023-04-28T03:45:07.433Z,85.96
2023-04-28T03:46:07.207Z,86.16
2023-04-28T03:47:07.153Z,86.27
2023-04-28T03:48:07.200Z,86.27
2023-04-28T03:49:07.116Z,85.96
2023-04-28T03:50:07.114Z,85.66
2023-04-28T03:51:07.118Z,85.25
2023-04-28T03:52:07.081Z,85.45
2023-04-28T03:53:07.079Z,85.55
2023-04-28T03:54:07.061Z,85.96
2023-04-28T03:55:07.043Z,85.35
2023-04-28T03:56:07.295Z,85.86
2023-04-28T03:57:07.030Z,85.75
2023-04-28T03:58:07.026Z,85.45
2023-04-28T03:59:07.005Z,85.66
2023-04-28T04:00:09.017Z,85.86
2023-04-28T04:01:07.255Z,85.86
2023-04-28T04:02:07.009Z,85.96
2023-04-28T04:03:07.062Z,84.94
2023-04-28T04:04:07.187Z,84.84
2023-04-28T04:05:07.240Z,84.84
2023-04-28T04:06:06.950Z,84.94
2023-04-28T04:07:06.939Z,85.14
2023-04-28T04:08:06.905Z,85.25
2023-04-28T04:09:06.901Z,85.45
2023-04-28T04:10:06.899Z,85.35
2023-04-28T04:11:06.962Z,85.66
2023-04-28T04:12:06.869Z,85.66
2023-04-28T04:13:06.882Z,85.45
2023-04-28T04:14:06.862Z,85.86
2023-04-28T04:15:06.831Z,86.27
2023-04-28T04:16:06.893Z,86.37
2023-04-28T04:17:06.838Z,86.06
2023-04-28T04:18:06.846Z,86.06
2023-04-28T04:19:06.815Z,86.77
2023-04-28T04:20:06.777Z,86.77
2023-04-28T04:21:07.016Z,86.88
2023-04-28T04:22:07.098Z,86.98
2023-04-28T04:23:07.087Z,87.08
2023-04-28T04:24:07.353Z,87.29
2023-04-28T04:25:06.736Z,87.38
2023-04-28T04:26:06.755Z,87.18
2023-04-28T04:27:06.745Z,86.98
2023-04-28T04:28:06.714Z,86.98
2023-04-28T04:29:06.683Z,87.08
2023-04-28T04:30:06.688Z,87.18
2023-04-28T04:31:06.755Z,87.38
2023-04-28T04:32:06.705Z,87.29
2023-04-28T04:33:06.673Z,87.49
2023-04-28T04:34:06.642Z,87.59
2023-04-28T04:35:06.669Z,87.29
2023-04-28T04:36:06.629Z,87.29
2023-04-28T04:37:06.613Z,87.49
2023-04-28T04:38:06.694Z,87.59
2023-04-28T04:39:06.584Z,87.90
2023-04-28T04:40:06.578Z,88.10
2023-04-28T04:41:06.832Z,88.10
2023-04-28T04:42:22.680Z,88.40
2023-04-28T04:43:07.527Z,88.31
2023-04-28T04:44:06.533Z,88.20
2023-04-28T04:45:06.803Z,88.10
2023-04-28T04:46:06.847Z,88.10
2023-04-28T04:47:06.511Z,88.20
2023-04-28T04:48:06.528Z,87.79
2023-04-28T04:49:06.491Z,87.79
2023-04-28T04:50:06.472Z,87.85
2023-04-28T04:51:06.481Z,87.55
2023-04-28T04:52:07.278Z,87.75
2023-04-28T04:53:07.933Z,87.75
2023-04-28T04:54:07.409Z,88.06
2023-04-28T04:55:06.419Z,88.26
2023-04-28T04:56:07.121Z,88.26
2023-04-28T04:57:06.408Z,88.36
2023-04-28T04:58:07.102Z,88.16
2023-04-28T04:59:06.372Z,88.36
2023-04-28T05:00:06.546Z,88.46
2023-04-28T05:01:06.350Z,88.67
2023-04-28T05:02:06.373Z,88.46
2023-04-28T05:03:06.640Z,88.16
2023-04-28T05:04:06.473Z,88.16
2023-04-28T05:05:19.585Z,88.06
2023-04-28T05:06:07.581Z,88.06
2023-04-28T05:07:06.285Z,88.16
2023-04-28T05:08:06.284Z,87.96
2023-04-28T05:09:06.266Z,87.96
2023-04-28T05:10:06.286Z,87.75
2023-04-28T05:11:06.261Z,87.75
2023-04-28T05:12:06.241Z,88.16
2023-04-28T05:13:06.244Z,88.26
2023-04-28T05:14:06.232Z,88.36
2023-04-28T05:15:06.509Z,88.57
2023-04-28T05:16:06.265Z,88.67
2023-04-28T05:17:06.195Z,88.87
2023-04-28T05:18:06.210Z,88.98
2023-04-28T05:19:06.154Z,89.07
2023-04-28T05:20:06.909Z,89.18
2023-04-28T05:21:06.133Z,89.38
2023-04-28T05:22:06.114Z,89.59
2023-04-28T05:23:06.124Z,89.89
2023-04-28T05:24:06.145Z,89.69
2023-04-28T05:25:06.104Z,89.48
2023-04-28T05:26:06.115Z,89.48
2023-04-28T05:27:06.380Z,89.38
2023-04-28T05:28:06.220Z,89.07
2023-04-28T05:29:06.078Z,88.77
2023-04-28T05:30:06.097Z,88.87
2023-04-28T05:31:06.045Z,88.98
2023-04-28T05:32:06.177Z,89.14
2023-04-28T05:33:06.122Z,89.03
2023-04-28T05:34:06.007Z,89.03
2023-04-28T05:35:05.992Z,88.83
2023-04-28T05:36:06.207Z,88.93
2023-04-28T05:37:05.993Z,89.44
2023-04-28T05:38:05.949Z,89.54
2023-04-28T05:39:06.064Z,89.85
2023-04-28T05:40:06.059Z,90.05
2023-04-28T05:41:05.913Z,90.56
2023-04-28T05:42:05.922Z,90.66
2023-04-28T05:43:06.367Z,90.97
2023-04-28T05:44:05.880Z,91.58
2023-04-28T05:45:05.897Z,91.88
2023-04-28T05:46:12.044Z,91.99
2023-04-28T05:47:07.126Z,92.09
2023-04-28T05:48:05.895Z,92.49
2023-04-28T05:49:05.970Z,92.70
2023-04-28T05:50:05.841Z,92.90
2023-04-28T05:51:05.836Z,93.01
2023-04-28T05:52:05.812Z,93.31
2023-04-28T05:53:05.906Z,93.71
2023-04-28T05:54:06.109Z,93.92
2023-04-28T05:55:05.769Z,94.12
2023-04-28T05:56:05.777Z,94.23
2023-04-28T05:57:05.751Z,94.53
2023-04-28T05:58:06.535Z,94.73
2023-04-28T05:59:05.719Z,94.63
2023-04-28T06:00:05.761Z,94.73
2023-04-28T06:01:05.720Z,94.73
2023-04-28T06:02:05.770Z,94.73
2023-04-28T06:03:05.869Z,94.73
2023-04-28T06:04:06.240Z,94.73
2023-04-28T06:05:05.797Z,94.84
2023-04-28T06:06:09.791Z,94.73
2023-04-28T06:07:05.649Z,94.84
2023-04-28T06:08:05.631Z,94.93
2023-04-28T06:09:05.650Z,95.04
2023-04-28T06:10:05.880Z,94.93
2023-04-28T06:11:05.620Z,94.93
2023-04-28T06:12:05.603Z,94.93
2023-04-28T06:13:05.606Z,95.14
2023-04-28T06:14:05.584Z,95.34
2023-04-28T06:15:05.844Z,95.45
2023-04-28T06:16:05.599Z,95.54
2023-04-28T06:17:06.426Z,95.65
2023-04-28T06:18:05.593Z,95.85
2023-04-28T06:19:05.522Z,96.00
2023-04-28T06:20:05.786Z,96.15
2023-04-28T06:21:05.501Z,96.30
2023-04-28T06:22:05.498Z,96.71
2023-04-28T06:23:05.474Z,96.92
2023-04-28T06:24:05.481Z,97.02
2023-04-28T06:25:07.715Z,97.22
2023-04-28T06:26:05.442Z,97.22
2023-04-28T06:27:05.438Z,97.28
2023-04-28T06:28:05.421Z,97.28
2023-04-28T06:29:05.425Z,97.28
2023-04-28T06:30:05.489Z,97.28
2023-04-28T06:31:05.453Z,97.28
2023-04-28T06:32:05.403Z,97.38
2023-04-28T06:33:05.449Z,97.38
2023-04-28T06:34:05.645Z,97.48
2023-04-28T06:35:05.356Z,97.48
2023-04-28T06:36:05.346Z,97.58
2023-04-28T06:37:06.278Z,97.58
2023-04-28T06:38:05.322Z,97.58
2023-04-28T06:39:05.319Z,97.69
2023-04-28T06:40:07.209Z,97.69
2023-04-28T06:41:05.300Z,97.78
2023-04-28T06:42:05.268Z,97.78
2023-04-28T06:43:05.983Z,97.64
2023-04-28T06:44:05.270Z,97.64
2023-04-28T06:45:05.509Z,97.64
2023-04-28T06:46:05.303Z,97.53
2023-04-28T06:47:05.633Z,97.53
2023-04-28T06:48:05.267Z,97.53
2023-04-28T06:49:05.209Z,97.44
2023-04-28T06:50:08.291Z,97.33
2023-04-28T06:51:05.396Z,97.23
2023-04-28T06:52:05.190Z,97.13
2023-04-28T06:53:05.191Z,97.13
2023-04-28T06:54:05.155Z,97.13
2023-04-28T06:55:05.137Z,97.13
2023-04-28T06:56:05.419Z,97.13
2023-04-28T06:57:05.120Z,97.03
2023-04-28T06:58:05.095Z,97.13
2023-04-28T06:59:05.285Z,97.13
2023-04-28T07:00:05.657Z,97.13
2023-04-28T07:01:05.383Z,97.23
2023-04-28T07:02:05.544Z,97.23
2023-04-28T07:03:05.206Z,97.23
2023-04-28T07:04:05.430Z,97.33
2023-04-28T07:05:05.599Z,97.33
2023-04-28T07:06:05.039Z,97.23
2023-04-28T07:07:05.207Z,97.13
2023-04-28T07:08:05.065Z,97.23
2023-04-28T07:09:05.332Z,97.23
2023-04-28T07:10:08.765Z,97.23
2023-04-28T07:11:05.207Z,97.33
2023-04-28T07:12:05.218Z,97.33
2023-04-28T07:13:04.949Z,97.33
2023-04-28T07:14:04.951Z,97.23
2023-04-28T07:15:04.915Z,97.23
2023-04-28T07:16:04.978Z,97.23
2023-04-28T07:17:04.902Z,97.23
2023-04-28T07:18:04.959Z,97.23
2023-04-28T07:19:04.883Z,97.23
2023-04-28T07:20:05.167Z,97.33
2023-04-28T07:21:05.538Z,97.33
2023-04-28T07:22:04.922Z,97.44
2023-04-28T07:23:04.855Z,97.44
2023-04-28T07:24:06.463Z,97.53
2023-04-28T07:25:04.959Z,97.64
2023-04-28T07:26:04.811Z,97.60
2023-04-28T07:27:04.794Z,97.53
2023-04-28T07:28:04.800Z,97.60
2023-04-28T07:29:04.801Z,97.60
2023-04-28T07:30:18.598Z,97.49
2023-04-28T07:31:05.750Z,97.49
2023-04-28T07:32:07.350Z,97.39
2023-04-28T07:33:04.820Z,97.39
2023-04-28T07:34:04.743Z,97.19
2023-04-28T07:35:04.713Z,97.29
2023-04-28T07:36:05.482Z,97.39
2023-04-28T07:37:04.692Z,97.29
2023-04-28T07:38:06.481Z,97.19
2023-04-28T07:39:05.388Z,97.29
2023-04-28T07:40:04.665Z,97.29
2023-04-28T07:41:05.733Z,97.29
2023-04-28T07:42:04.655Z,97.39
2023-04-28T07:43:04.635Z,97.29
2023-04-28T07:44:04.634Z,97.29
2023-04-28T07:45:04.604Z,97.29
2023-04-28T07:46:04.686Z,97.29
2023-04-28T07:47:04.585Z,97.29
2023-04-28T07:48:04.593Z,97.29
2023-04-28T07:49:04.867Z,97.29
2023-04-28T07:50:04.574Z,97.19
2023-04-28T07:51:04.561Z,97.19
2023-04-28T07:52:04.557Z,97.39
2023-04-28T07:53:04.515Z,97.49
2023-04-28T07:54:06.164Z,97.60
2023-04-28T07:55:04.490Z,97.69
2023-04-28T07:56:04.467Z,97.69
2023-04-28T07:57:05.274Z,97.69
2023-04-28T07:58:04.450Z,97.69
2023-04-28T07:59:05.215Z,97.69
2023-04-28T08:00:04.458Z,97.69
2023-04-28T08:01:06.217Z,97.80
2023-04-28T08:02:04.423Z,97.69
2023-04-28T08:03:06.290Z,97.69
2023-04-28T08:04:04.738Z,97.89
2023-04-28T08:05:04.539Z,98.00
2023-04-28T08:06:04.466Z,98.20
2023-04-28T08:07:04.360Z,98.30
2023-04-28T08:08:04.576Z,98.50
2023-04-28T08:09:04.733Z,98.50
2023-04-28T08:10:04.346Z,98.46
2023-04-28T08:11:04.323Z,98.50
2023-04-28T08:12:04.306Z,98.46
2023-04-28T08:13:04.694Z,98.56
2023-04-28T08:14:04.302Z,98.46
2023-04-28T08:15:04.280Z,98.46
2023-04-28T08:16:04.306Z,98.36
2023-04-28T08:17:04.282Z,98.46
2023-04-28T08:18:05.118Z,98.66
2023-04-28T08:19:04.349Z,98.81
2023-04-28T08:20:04.221Z,98.81
2023-04-28T08:21:04.215Z,98.91
2023-04-28T08:22:04.193Z,98.91
2023-04-28T08:23:04.222Z,98.91
2023-04-28T08:24:04.192Z,98.91
2023-04-28T08:25:04.163Z,98.91
2023-04-28T08:26:04.158Z,99.02
2023-04-28T08:27:04.147Z,99.02
2023-04-28T08:28:04.178Z,99.02
2023-04-28T08:29:04.398Z,99.11
2023-04-28T08:30:04.111Z,99.11
2023-04-28T08:31:04.197Z,99.22
2023-04-28T08:32:04.094Z,99.22
2023-04-28T08:33:04.087Z,99.22
2023-04-28T08:34:05.286Z,99.22
2023-04-28T08:35:04.076Z,99.22
2023-04-28T08:36:04.047Z,99.17
2023-04-28T08:37:04.069Z,99.27
2023-04-28T08:38:04.124Z,99.38
2023-04-28T08:39:05.479Z,99.48
2023-04-28T08:40:04.031Z,99.48
2023-04-28T08:41:03.992Z,99.48
2023-04-28T08:42:03.981Z,99.48
2023-04-28T08:43:03.981Z,99.58
2023-04-28T08:44:03.990Z,99.58
2023-04-28T08:45:03.941Z,99.58
2023-04-28T08:46:03.964Z,99.58
2023-04-28T08:47:04.002Z,99.53
2023-04-28T08:48:03.958Z,99.43
2023-04-28T08:49:03.901Z,99.43
2023-04-28T08:50:04.662Z,99.33
2023-04-28T08:51:04.864Z,99.33
2023-04-28T08:52:03.893Z,99.22
2023-04-28T08:53:03.956Z,99.22
2023-04-28T08:54:24.838Z,99.22
2023-04-28T08:55:04.931Z,99.33
2023-04-28T08:56:03.862Z,99.33
2023-04-28T08:57:03.931Z,99.28
2023-04-28T08:58:03.889Z,99.28
2023-04-28T08:59:04.222Z,99.08
2023-04-28T09:00:03.801Z,99.08
2023-04-28T09:01:03.797Z,99.18
2023-04-28T09:02:05.308Z,99.13
2023-04-28T09:03:03.869Z,99.13
2023-04-28T09:04:04.236Z,99.24
2023-04-28T09:05:04.057Z,99.13
2023-04-28T09:06:03.741Z,99.04
2023-04-28T09:07:03.708Z,98.73
2023-04-28T09:08:03.707Z,98.63
2023-04-28T09:09:03.722Z,98.63
2023-04-28T09:10:03.684Z,98.63
2023-04-28T09:11:04.390Z,98.73
2023-04-28T09:12:03.692Z,98.73
2023-04-28T09:13:03.635Z,98.63
2023-04-28T09:14:03.659Z,98.63
2023-04-28T09:15:03.694Z,98.63
2023-04-28T09:16:03.710Z,98.52
2023-04-28T09:17:03.632Z,98.43
2023-04-28T09:18:03.924Z,98.12
2023-04-28T09:19:03.588Z,98.22
2023-04-28T09:20:03.601Z,98.32
2023-04-28T09:21:03.556Z,98.32
2023-04-28T09:22:10.957Z,98.52
2023-04-28T09:23:04.584Z,98.73
2023-04-28T09:24:03.828Z,99.04
2023-04-28T09:25:03.533Z,99.29
2023-04-28T09:26:03.534Z,99.29
2023-04-28T09:27:03.497Z,99.39
2023-04-28T09:28:03.497Z,99.29
2023-04-28T09:29:03.473Z,99.29
2023-04-28T09:30:03.684Z,99.35
2023-04-28T09:31:03.465Z,99.35
2023-04-28T09:32:03.500Z,99.35
2023-04-28T09:33:03.499Z,99.24
2023-04-28T09:34:03.442Z,99.24
2023-04-28T09:35:03.584Z,99.19
2023-04-28T09:36:03.734Z,98.79
2023-04-28T09:37:03.455Z,98.33
2023-04-28T09:38:03.387Z,98.03
2023-04-28T09:39:03.374Z,97.72
2023-04-28T09:40:03.369Z,97.52
2023-04-28T09:41:03.378Z,97.52
2023-04-28T09:42:03.441Z,97.72
2023-04-28T09:43:11.909Z,97.72
2023-04-28T09:44:04.319Z,97.92
2023-04-28T09:45:03.405Z,98.23
2023-04-28T09:46:04.139Z,98.33
2023-04-28T09:47:03.309Z,98.54
2023-04-28T09:48:03.348Z,98.74
2023-04-28T09:49:03.260Z,98.94
2023-04-28T09:50:03.257Z,98.90
2023-04-28T09:51:03.264Z,98.99
2023-04-28T09:52:03.295Z,98.99
2023-04-28T09:53:03.235Z,98.69
2023-04-28T09:54:03.309Z,98.49
2023-04-28T09:55:03.221Z,98.49
2023-04-28T09:56:03.426Z,98.44
2023-04-28T09:57:03.584Z,98.34
2023-04-28T09:58:03.909Z,98.03
2023-04-28T09:59:03.212Z,97.89
2023-04-28T10:00:03.241Z,97.49
2023-04-28T10:01:03.220Z,97.28
2023-04-28T10:02:12.864Z,97.24
2023-04-28T10:03:04.306Z,97.14
2023-04-28T10:04:03.967Z,97.14
2023-04-28T10:05:03.429Z,97.03
2023-04-28T10:06:03.528Z,96.98
2023-04-28T10:07:03.342Z,96.78
2023-04-28T10:08:03.801Z,96.69
2023-04-28T10:09:03.193Z,96.58
2023-04-28T10:10:03.817Z,96.38
2023-04-28T10:11:03.043Z,96.34
2023-04-28T10:12:03.744Z,96.44
2023-04-28T10:13:03.025Z,96.34
2023-04-28T10:14:03.183Z,95.93
2023-04-28T10:15:02.999Z,95.83
2023-04-28T10:16:03.050Z,95.93
2023-04-28T10:17:02.970Z,96.03
2023-04-28T10:18:02.985Z,96.03
2023-04-28T10:19:02.952Z,95.53
2023-04-28T10:20:02.943Z,95.18
2023-04-28T10:21:02.951Z,94.98
2023-04-28T10:22:02.924Z,95.18
2023-04-28T10:23:02.894Z,95.48
2023-04-28T10:24:03.449Z,95.58
2023-04-28T10:25:02.911Z,95.38
2023-04-28T10:26:04.503Z,94.78
2023-04-28T10:27:02.891Z,95.07
2023-04-28T10:28:03.516Z,95.34
2023-04-28T10:29:02.893Z,95.23
2023-04-28T10:30:03.961Z,94.68
2023-04-28T10:31:02.887Z,94.54
2023-04-28T10:32:03.523Z,94.04
2023-04-28T10:33:03.145Z,94.09
2023-04-28T10:34:03.477Z,93.49
2023-04-28T10:35:02.799Z,93.24
2023-04-28T10:36:03.500Z,92.94
2023-04-28T10:37:02.762Z,93.65
2023-04-28T10:38:03.741Z,93.54
2023-04-28T10:39:02.768Z,93.14
2023-04-28T10:40:03.466Z,93.34
2023-04-28T10:41:02.714Z,93.44
2023-04-28T10:42:03.428Z,93.65
2023-04-28T10:43:02.718Z,94.25
2023-04-28T10:44:02.712Z,93.74
2023-04-28T10:45:02.683Z,93.14
2023-04-28T10:46:03.422Z,92.63
2023-04-28T10:47:03.367Z,92.83
2023-04-28T10:48:03.398Z,93.14
2023-04-28T10:49:02.876Z,93.74
2023-04-28T10:50:03.667Z,94.15
2023-04-28T10:51:02.633Z,93.74
2023-04-28T10:52:02.659Z,94.10
2023-04-28T10:53:02.589Z,93.40
2023-04-28T10:54:02.852Z,92.90
2023-04-28T10:55:09.493Z,93.10
2023-04-28T10:56:03.580Z,93.10
2023-04-28T10:57:02.584Z,93.60
2023-04-28T10:58:02.545Z,92.99
2023-04-28T10:59:02.554Z,93.19
2023-04-28T11:00:02.517Z,92.69
2023-04-28T11:01:02.521Z,92.29
2023-04-28T11:02:02.562Z,91.89
2023-04-28T11:03:02.788Z,92.65
2023-04-28T11:04:02.779Z,92.25
2023-04-28T11:05:02.616Z,91.89
2023-04-28T11:06:02.466Z,91.28
2023-04-28T11:07:02.452Z,91.74
2023-04-28T11:08:02.451Z,90.53
2023-04-28T11:09:02.462Z,91.04
2023-04-28T11:10:02.394Z,91.14
2023-04-28T11:11:02.414Z,90.13
2023-04-28T11:12:02.407Z,90.33
2023-04-28T11:13:03.110Z,89.59
2023-04-28T11:14:03.241Z,90.49
2023-04-28T11:15:02.420Z,89.99
2023-04-28T11:16:02.464Z,89.18
2023-04-28T11:17:02.439Z,89.84
2023-04-28T11:18:02.465Z,89.75
2023-04-28T11:19:03.854Z,89.04
2023-04-28T11:20:02.452Z,88.74
2023-04-28T11:21:02.972Z,88.13
2023-04-28T11:22:02.308Z,89.04
2023-04-28T11:23:02.503Z,88.18
2023-04-28T11:24:02.322Z,87.67
2023-04-28T11:25:02.995Z,88.13
2023-04-28T11:26:02.250Z,87.27
2023-04-28T11:27:02.386Z,86.66
2023-04-28T11:28:05.179Z,86.26
2023-04-28T11:29:02.921Z,87.02
2023-04-28T11:30:02.269Z,87.23
2023-04-28T11:31:02.477Z,87.02
2023-04-28T11:32:02.187Z,86.63
2023-04-28T11:33:02.226Z,87.02
2023-04-28T11:34:02.154Z,87.13
2023-04-28T11:35:02.209Z,87.33
2023-04-28T11:36:02.128Z,87.02
2023-04-28T11:37:02.121Z,87.73
2023-04-28T11:38:02.110Z,86.52
2023-04-28T11:39:02.116Z,87.13
2023-04-28T11:40:02.077Z,86.63
2023-04-28T11:41:02.086Z,87.47
2023-04-28T11:42:02.059Z,87.67
2023-04-28T11:43:02.158Z,86.97
2023-04-28T11:44:02.029Z,87.47
2023-04-28T11:45:02.073Z,87.17
2023-04-28T11:46:02.029Z,86.97
2023-04-28T11:47:02.350Z,87.87
2023-04-28T11:48:04.930Z,87.47
2023-04-28T11:49:01.988Z,86.43
2023-04-28T11:50:02.243Z,87.23
2023-04-28T11:51:01.962Z,87.33
2023-04-28T11:52:03.746Z,88.03
2023-04-28T11:53:01.953Z,87.33
2023-04-28T11:54:01.954Z,87.02
2023-04-28T11:55:02.046Z,87.13
2023-04-28T11:56:01.925Z,86.38
2023-04-28T11:57:01.938Z,86.43
2023-04-28T11:58:01.894Z,87.02
2023-04-28T11:59:03.788Z,86.99
2023-04-28T12:00:01.914Z,86.18
2023-04-28T12:01:01.893Z,85.68
2023-04-28T12:02:01.895Z,85.58
2023-04-28T12:03:01.991Z,85.78
2023-04-28T12:04:01.950Z,86.88
2023-04-28T12:05:01.892Z,86.88
2023-04-28T12:06:01.864Z,86.18
2023-04-28T12:07:01.795Z,86.38
2023-04-28T12:08:01.777Z,86.28
2023-04-28T12:09:01.776Z,85.48
2023-04-28T12:10:02.333Z,85.88
2023-04-28T12:11:01.755Z,85.24
2023-04-28T12:12:01.757Z,85.74
2023-04-28T12:13:01.736Z,84.83
2023-04-28T12:14:01.724Z,84.43
2023-04-28T12:15:01.724Z,84.13
2023-04-28T12:16:02.021Z,85.03
2023-04-28T12:17:01.696Z,85.03
2023-04-28T12:18:01.728Z,84.43
2023-04-28T12:19:01.682Z,84.13
2023-04-28T12:20:01.689Z,84.63
2023-04-28T12:21:01.648Z,83.93
2023-04-28T12:22:01.676Z,83.12
2023-04-28T12:23:01.606Z,82.22
2023-04-28T12:24:01.617Z,83.63
2023-04-28T12:25:01.599Z,83.53
2023-04-28T12:26:01.584Z,85.33
2023-04-28T12:27:01.574Z,86.04
2023-04-28T12:28:01.722Z,86.94
2023-04-28T12:29:01.546Z,87.39
2023-04-28T12:30:02.283Z,87.49
2023-04-28T12:31:01.608Z,88.29
2023-04-28T12:32:02.249Z,88.59
2023-04-28T12:33:02.357Z,89.54
2023-04-28T12:34:02.507Z,89.95
2023-04-28T12:35:01.500Z,90.39
2023-04-28T12:36:02.164Z,90.99
2023-04-28T12:37:01.488Z,91.60
2023-04-28T12:38:02.322Z,91.85
2023-04-28T12:39:01.727Z,92.55
2023-04-28T12:40:02.930Z,92.45
2023-04-28T12:41:01.768Z,92.75
2023-04-28T12:42:01.486Z,93.30
2023-04-28T12:43:01.422Z,93.30
2023-04-28T12:44:02.118Z,92.29
2023-04-28T12:45:01.454Z,91.73
2023-04-28T12:46:01.846Z,90.32
2023-04-28T12:47:01.359Z,90.22
2023-04-28T12:48:01.393Z,90.06
2023-04-28T12:49:01.347Z,91.37
2023-04-28T12:50:01.325Z,90.56
2023-04-28T12:51:01.587Z,90.86
2023-04-28T12:52:01.315Z,90.56